Terminal Aerodrome Forecast
Issued by NWS Caribou, ME

Home | Current Version | Previous Version | Text Only | Print | Product List | Glossary On
Versions: 1 2 3 4 5 6 7 8 9 10 11 12 13 14 15 16 17 18 19 20
342
FTUS41 KCAR 091741
TAFCAR
TAF
KCAR 091741Z 0918/1018 02008KT 3SM -SN SCT015 OVC035
     FM092000 03008KT 2SM -SN OVC025
     FM100000 03006KT 4SM -SN OVC015
     FM100600 34004KT P6SM -SN SCT015 OVC025
     FM100800 VRB03KT P6SM OVC035
     FM101300 VRB03KT P6SM -SN OVC025=

USA.gov is the U.S. government's official web portal to all federal, state and local government web resources and services.